sensor_id;sensor_type;location;lat;lon;timestamp;temperature;humidity
66088;DHT22;52872;52.994;6.940;2024-01-16T00:02:02;-0.20;99.90
66088;DHT22;52872;52.994;6.940;2024-01-16T00:04:29;-0.30;99.90
66088;DHT22;52872;52.994;6.940;2024-01-16T00:06:57;-0.30;99.90
66088;DHT22;52872;52.994;6.940;2024-01-16T00:09:24;-0.30;99.90
66088;DHT22;52872;52.994;6.940;2024-01-16T00:11:52;-0.30;99.90
66088;DHT22;52872;52.994;6.940;2024-01-16T00:14:19;-0.30;99.90
66088;DHT22;52872;52.994;6.940;2024-01-16T00:16:46;-0.20;99.90
66088;DHT22;52872;52.994;6.940;2024-01-16T00:19:14;-0.20;99.90
66088;DHT22;52872;52.994;6.940;2024-01-16T00:21:44;-0.30;99.90
66088;DHT22;52872;52.994;6.940;2024-01-16T00:24:14;-0.20;99.90
66088;DHT22;52872;52.994;6.940;2024-01-16T00:26:41;-0.20;99.90
66088;DHT22;52872;52.994;6.940;2024-01-16T00:29:09;-0.30;99.90
66088;DHT22;52872;52.994;6.940;2024-01-16T00:31:39;-0.30;99.90
66088;DHT22;52872;52.994;6.940;2024-01-16T00:34:07;-0.30;99.90
66088;DHT22;52872;52.994;6.940;2024-01-16T00:36:34;-0.40;99.90
66088;DHT22;52872;52.994;6.940;2024-01-16T00:39:01;-0.40;99.90
66088;DHT22;52872;52.994;6.940;2024-01-16T00:41:30;-0.30;99.90
66088;DHT22;52872;52.994;6.940;2024-01-16T00:43:57;-0.30;99.90
66088;DHT22;52872;52.994;6.940;2024-01-16T00:46:24;-0.30;99.90
66088;DHT22;52872;52.994;6.940;2024-01-16T00:48:51;-0.40;99.90
66088;DHT22;52872;52.994;6.940;2024-01-16T00:51:19;-0.50;99.90
66088;DHT22;52872;52.994;6.940;2024-01-16T00:53:46;-0.50;99.90
66088;DHT22;52872;52.994;6.940;2024-01-16T00:56:13;-0.60;99.90
66088;DHT22;52872;52.994;6.940;2024-01-16T00:58:40;-0.60;99.90
66088;DHT22;52872;52.994;6.940;2024-01-16T01:01:08;-0.60;99.90
66088;DHT22;52872;52.994;6.940;2024-01-16T01:03:35;-0.60;99.90
66088;DHT22;52872;52.994;6.940;2024-01-16T01:06:02;-0.70;99.90
66088;DHT22;52872;52.994;6.940;2024-01-16T01:08:29;-0.70;99.90
66088;DHT22;52872;52.994;6.940;2024-01-16T01:10:56;-0.70;99.90
66088;DHT22;52872;52.994;6.940;2024-01-16T01:13:24;-0.70;99.90
66088;DHT22;52872;52.994;6.940;2024-01-16T01:15:52;-0.70;99.90
66088;DHT22;52872;52.994;6.940;2024-01-16T01:18:19;-0.70;99.90
66088;DHT22;52872;52.994;6.940;2024-01-16T01:20:47;-0.70;99.90
66088;DHT22;52872;52.994;6.940;2024-01-16T01:23:14;-0.70;99.90
66088;DHT22;52872;52.994;6.940;2024-01-16T01:25:41;-0.70;99.90
66088;DHT22;52872;52.994;6.940;2024-01-16T01:28:10;-0.70;99.90
66088;DHT22;52872;52.994;6.940;2024-01-16T01:30:38;-0.60;99.90
66088;DHT22;52872;52.994;6.940;2024-01-16T01:33:05;-0.60;99.90
66088;DHT22;52872;52.994;6.940;2024-01-16T01:35:33;-0.50;99.90
66088;DHT22;52872;52.994;6.940;2024-01-16T01:38:00;-0.40;99.90
66088;DHT22;52872;52.994;6.940;2024-01-16T01:40:28;-0.20;99.90
66088;DHT22;52872;52.994;6.940;2024-01-16T01:42:55;-0.20;99.90
66088;DHT22;52872;52.994;6.940;2024-01-16T01:45:22;-0.10;99.90
66088;DHT22;52872;52.994;6.940;2024-01-16T01:47:50;0.00;99.90
66088;DHT22;52872;52.994;6.940;2024-01-16T01:50:17;0.00;99.90
66088;DHT22;52872;52.994;6.940;2024-01-16T01:52:45;-0.10;99.90
66088;DHT22;52872;52.994;6.940;2024-01-16T01:55:13;-0.20;99.90
66088;DHT22;52872;52.994;6.940;2024-01-16T01:57:41;-0.20;99.90
66088;DHT22;52872;52.994;6.940;2024-01-16T02:00:10;-0.30;99.90
66088;DHT22;52872;52.994;6.940;2024-01-16T02:02:41;-0.30;99.90
66088;DHT22;52872;52.994;6.940;2024-01-16T02:05:09;-0.40;99.90
66088;DHT22;52872;52.994;6.940;2024-01-16T02:07:38;-0.50;99.90
66088;DHT22;52872;52.994;6.940;2024-01-16T02:10:05;-0.70;99.90
66088;DHT22;52872;52.994;6.940;2024-01-16T02:12:33;-0.80;99.90
66088;DHT22;52872;52.994;6.940;2024-01-16T02:15:00;-0.80;99.90
66088;DHT22;52872;52.994;6.940;2024-01-16T02:17:27;-0.80;99.90
66088;DHT22;52872;52.994;6.940;2024-01-16T02:19:54;-0.90;99.90
66088;DHT22;52872;52.994;6.940;2024-01-16T02:22:25;-1.00;99.90
66088;DHT22;52872;52.994;6.940;2024-01-16T02:24:54;-1.00;99.90
66088;DHT22;52872;52.994;6.940;2024-01-16T02:27:22;-0.90;99.90
66088;DHT22;52872;52.994;6.940;2024-01-16T02:29:50;-0.90;99.90
66088;DHT22;52872;52.994;6.940;2024-01-16T02:32:17;-0.90;99.90
66088;DHT22;52872;52.994;6.940;2024-01-16T02:34:44;-0.90;99.90
66088;DHT22;52872;52.994;6.940;2024-01-16T02:37:11;-0.80;99.90
66088;DHT22;52872;52.994;6.940;2024-01-16T02:39:39;-0.70;99.90
66088;DHT22;52872;52.994;6.940;2024-01-16T02:42:06;-0.60;99.90
66088;DHT22;52872;52.994;6.940;2024-01-16T02:44:33;-0.40;99.90
66088;DHT22;52872;52.994;6.940;2024-01-16T02:47:01;-0.30;99.90
66088;DHT22;52872;52.994;6.940;2024-01-16T02:49:28;-0.30;99.90
66088;DHT22;52872;52.994;6.940;2024-01-16T02:51:58;-0.30;99.90
66088;DHT22;52872;52.994;6.940;2024-01-16T02:54:25;-0.40;99.90
66088;DHT22;52872;52.994;6.940;2024-01-16T02:56:52;-0.40;99.90
66088;DHT22;52872;52.994;6.940;2024-01-16T02:59:19;-0.30;99.90
66088;DHT22;52872;52.994;6.940;2024-01-16T03:01:47;-0.40;99.90
66088;DHT22;52872;52.994;6.940;2024-01-16T03:04:14;-0.40;99.90
66088;DHT22;52872;52.994;6.940;2024-01-16T03:06:41;-0.40;99.90
66088;DHT22;52872;52.994;6.940;2024-01-16T03:09:09;-0.30;99.90
66088;DHT22;52872;52.994;6.940;2024-01-16T03:11:36;-0.30;99.90
66088;DHT22;52872;52.994;6.940;2024-01-16T03:14:03;-0.30;99.90
66088;DHT22;52872;52.994;6.940;2024-01-16T03:16:32;-0.30;99.90
66088;DHT22;52872;52.994;6.940;2024-01-16T03:18:59;-0.40;99.90
66088;DHT22;52872;52.994;6.940;2024-01-16T03:21:26;-0.50;99.90
66088;DHT22;52872;52.994;6.940;2024-01-16T03:23:54;-0.60;99.90
66088;DHT22;52872;52.994;6.940;2024-01-16T03:26:21;-0.60;99.90
66088;DHT22;52872;52.994;6.940;2024-01-16T03:28:49;-0.70;99.90
66088;DHT22;52872;52.994;6.940;2024-01-16T03:31:16;-0.70;99.90
66088;DHT22;52872;52.994;6.940;2024-01-16T03:33:44;-0.70;99.90
66088;DHT22;52872;52.994;6.940;2024-01-16T03:36:11;-0.70;99.90
66088;DHT22;52872;52.994;6.940;2024-01-16T03:38:41;-0.70;99.90
66088;DHT22;52872;52.994;6.940;2024-01-16T03:41:10;-0.70;99.90
66088;DHT22;52872;52.994;6.940;2024-01-16T03:43:39;-0.70;99.90
66088;DHT22;52872;52.994;6.940;2024-01-16T03:46:07;-0.70;99.90
66088;DHT22;52872;52.994;6.940;2024-01-16T03:48:34;-0.80;99.90
66088;DHT22;52872;52.994;6.940;2024-01-16T03:51:01;-0.80;99.90
66088;DHT22;52872;52.994;6.940;2024-01-16T03:53:29;-0.80;99.90
66088;DHT22;52872;52.994;6.940;2024-01-16T03:55:56;-0.80;99.90
66088;DHT22;52872;52.994;6.940;2024-01-16T03:58:23;-0.90;99.90
66088;DHT22;52872;52.994;6.940;2024-01-16T04:00:50;-0.90;99.90
66088;DHT22;52872;52.994;6.940;2024-01-16T04:03:18;-1.00;99.90
66088;DHT22;52872;52.994;6.940;2024-01-16T04:05:45;-1.00;99.90
66088;DHT22;52872;52.994;6.940;2024-01-16T04:08:12;-1.00;99.90
66088;DHT22;52872;52.994;6.940;2024-01-16T04:10:40;-1.00;99.90
66088;DHT22;52872;52.994;6.940;2024-01-16T04:13:07;-0.90;99.90
66088;DHT22;52872;52.994;6.940;2024-01-16T04:15:38;-1.00;99.90
66088;DHT22;52872;52.994;6.940;2024-01-16T04:18:06;-0.90;99.90
66088;DHT22;52872;52.994;6.940;2024-01-16T04:20:34;-0.90;99.90
66088;DHT22;52872;52.994;6.940;2024-01-16T04:23:01;-0.90;99.90
66088;DHT22;52872;52.994;6.940;2024-01-16T04:25:28;-0.90;99.90
66088;DHT22;52872;52.994;6.940;2024-01-16T04:27:55;-0.90;99.90
66088;DHT22;52872;52.994;6.940;2024-01-16T04:30:23;-0.90;99.90
66088;DHT22;52872;52.994;6.940;2024-01-16T04:32:50;-0.90;99.90
66088;DHT22;52872;52.994;6.940;2024-01-16T04:35:17;-1.00;99.90
66088;DHT22;52872;52.994;6.940;2024-01-16T04:37:45;-0.90;99.90
66088;DHT22;52872;52.994;6.940;2024-01-16T04:40:12;-0.80;99.90
66088;DHT22;52872;52.994;6.940;2024-01-16T04:42:39;-0.70;99.90
66088;DHT22;52872;52.994;6.940;2024-01-16T04:45:06;-0.70;99.90
66088;DHT22;52872;52.994;6.940;2024-01-16T04:47:33;-0.70;99.90
66088;DHT22;52872;52.994;6.940;2024-01-16T04:50:00;-0.70;99.90
66088;DHT22;52872;52.994;6.940;2024-01-16T04:52:27;-0.60;99.90
66088;DHT22;52872;52.994;6.940;2024-01-16T04:54:54;-0.60;99.90
66088;DHT22;52872;52.994;6.940;2024-01-16T04:57:21;-0.50;99.90
66088;DHT22;52872;52.994;6.940;2024-01-16T04:59:50;-0.50;99.90
66088;DHT22;52872;52.994;6.940;2024-01-16T05:02:17;-0.50;99.90
66088;DHT22;52872;52.994;6.940;2024-01-16T05:04:45;-0.50;99.90
66088;DHT22;52872;52.994;6.940;2024-01-16T05:07:16;-0.50;99.90
66088;DHT22;52872;52.994;6.940;2024-01-16T05:09:44;-0.60;99.90
66088;DHT22;52872;52.994;6.940;2024-01-16T05:12:12;-0.60;99.90
66088;DHT22;52872;52.994;6.940;2024-01-16T05:14:39;-0.50;99.90
66088;DHT22;52872;52.994;6.940;2024-01-16T05:17:07;-0.50;99.90
66088;DHT22;52872;52.994;6.940;2024-01-16T05:19:35;-0.50;99.90
66088;DHT22;52872;52.994;6.940;2024-01-16T05:22:02;-0.50;99.90
66088;DHT22;52872;52.994;6.940;2024-01-16T05:24:30;-0.50;99.90
66088;DHT22;52872;52.994;6.940;2024-01-16T05:26:57;-0.60;99.90
66088;DHT22;52872;52.994;6.940;2024-01-16T05:29:24;-0.50;99.90
66088;DHT22;52872;52.994;6.940;2024-01-16T05:31:51;-0.50;99.90
66088;DHT22;52872;52.994;6.940;2024-01-16T05:34:18;-0.60;99.90
66088;DHT22;52872;52.994;6.940;2024-01-16T05:36:45;-0.50;99.90
66088;DHT22;52872;52.994;6.940;2024-01-16T05:39:12;-0.60;99.90
66088;DHT22;52872;52.994;6.940;2024-01-16T05:41:40;-0.60;99.90
66088;DHT22;52872;52.994;6.940;2024-01-16T05:44:07;-0.60;99.90
66088;DHT22;52872;52.994;6.940;2024-01-16T05:46:34;-0.60;99.90
66088;DHT22;52872;52.994;6.940;2024-01-16T05:49:01;-0.60;99.90
66088;DHT22;52872;52.994;6.940;2024-01-16T05:51:30;-0.60;99.90
66088;DHT22;52872;52.994;6.940;2024-01-16T05:53:57;-0.60;99.90
66088;DHT22;52872;52.994;6.940;2024-01-16T05:56:24;-0.50;99.90
66088;DHT22;52872;52.994;6.940;2024-01-16T05:58:52;-0.40;99.90
66088;DHT22;52872;52.994;6.940;2024-01-16T06:01:19;-0.40;99.90
66088;DHT22;52872;52.994;6.940;2024-01-16T06:03:46;-0.30;99.90
66088;DHT22;52872;52.994;6.940;2024-01-16T06:06:16;-0.30;99.90
66088;DHT22;52872;52.994;6.940;2024-01-16T06:08:43;-0.20;99.90
66088;DHT22;52872;52.994;6.940;2024-01-16T06:11:11;-0.30;99.90
66088;DHT22;52872;52.994;6.940;2024-01-16T06:13:40;-0.20;99.90
66088;DHT22;52872;52.994;6.940;2024-01-16T06:16:07;-0.20;99.90
66088;DHT22;52872;52.994;6.940;2024-01-16T06:18:37;-0.20;99.90
66088;DHT22;52872;52.994;6.940;2024-01-16T06:21:04;-0.10;99.90
66088;DHT22;52872;52.994;6.940;2024-01-16T06:23:31;-0.10;99.90
66088;DHT22;52872;52.994;6.940;2024-01-16T06:26:00;-0.10;99.90
66088;DHT22;52872;52.994;6.940;2024-01-16T06:28:27;0.00;99.90
66088;DHT22;52872;52.994;6.940;2024-01-16T06:30:54;0.00;99.90
66088;DHT22;52872;52.994;6.940;2024-01-16T06:33:21;0.00;99.90
66088;DHT22;52872;52.994;6.940;2024-01-16T06:35:49;0.00;99.90
66088;DHT22;52872;52.994;6.940;2024-01-16T06:38:19;0.10;99.90
66088;DHT22;52872;52.994;6.940;2024-01-16T06:40:46;0.00;99.90
66088;DHT22;52872;52.994;6.940;2024-01-16T06:43:15;0.00;99.90
66088;DHT22;52872;52.994;6.940;2024-01-16T06:45:43;0.00;99.90
66088;DHT22;52872;52.994;6.940;2024-01-16T06:48:11;0.00;99.90
66088;DHT22;52872;52.994;6.940;2024-01-16T06:50:38;0.10;99.90
66088;DHT22;52872;52.994;6.940;2024-01-16T06:53:05;0.10;99.90
66088;DHT22;52872;52.994;6.940;2024-01-16T06:55:33;0.00;99.90
66088;DHT22;52872;52.994;6.940;2024-01-16T06:58:00;0.00;99.90
66088;DHT22;52872;52.994;6.940;2024-01-16T07:00:27;0.00;99.90
66088;DHT22;52872;52.994;6.940;2024-01-16T07:02:54;0.00;99.90
66088;DHT22;52872;52.994;6.940;2024-01-16T07:05:22;0.00;99.90
66088;DHT22;52872;52.994;6.940;2024-01-16T07:07:49;0.00;99.90
66088;DHT22;52872;52.994;6.940;2024-01-16T07:10:16;0.00;99.90
66088;DHT22;52872;52.994;6.940;2024-01-16T07:12:49;0.00;99.90
66088;DHT22;52872;52.994;6.940;2024-01-16T07:15:18;0.00;99.90
66088;DHT22;52872;52.994;6.940;2024-01-16T07:17:45;0.00;99.90
66088;DHT22;52872;52.994;6.940;2024-01-16T07:20:13;0.00;99.90
66088;DHT22;52872;52.994;6.940;2024-01-16T07:22:40;0.00;99.90
66088;DHT22;52872;52.994;6.940;2024-01-16T07:25:08;0.00;99.90
66088;DHT22;52872;52.994;6.940;2024-01-16T07:27:35;0.00;99.90
66088;DHT22;52872;52.994;6.940;2024-01-16T07:30:05;0.00;99.90
66088;DHT22;52872;52.994;6.940;2024-01-16T07:32:33;0.00;99.90
66088;DHT22;52872;52.994;6.940;2024-01-16T07:35:02;0.00;99.90
66088;DHT22;52872;52.994;6.940;2024-01-16T07:37:30;0.00;99.90
66088;DHT22;52872;52.994;6.940;2024-01-16T07:39:57;0.00;99.90
66088;DHT22;52872;52.994;6.940;2024-01-16T07:42:24;0.00;99.90
66088;DHT22;52872;52.994;6.940;2024-01-16T07:44:52;0.00;99.90
66088;DHT22;52872;52.994;6.940;2024-01-16T07:47:19;0.00;99.90
66088;DHT22;52872;52.994;6.940;2024-01-16T07:49:47;0.00;99.90
66088;DHT22;52872;52.994;6.940;2024-01-16T07:52:14;0.00;99.90
66088;DHT22;52872;52.994;6.940;2024-01-16T07:54:42;0.00;99.90
66088;DHT22;52872;52.994;6.940;2024-01-16T07:57:09;0.10;99.90
66088;DHT22;52872;52.994;6.940;2024-01-16T07:59:37;0.00;99.90
66088;DHT22;52872;52.994;6.940;2024-01-16T08:02:04;0.10;99.90
66088;DHT22;52872;52.994;6.940;2024-01-16T08:04:32;0.10;99.90
66088;DHT22;52872;52.994;6.940;2024-01-16T08:06:59;0.10;99.90
66088;DHT22;52872;52.994;6.940;2024-01-16T08:09:26;0.10;99.90
66088;DHT22;52872;52.994;6.940;2024-01-16T08:11:54;0.10;99.90
66088;DHT22;52872;52.994;6.940;2024-01-16T08:14:21;0.10;99.90
66088;DHT22;52872;52.994;6.940;2024-01-16T08:16:49;0.10;99.90
66088;DHT22;52872;52.994;6.940;2024-01-16T08:19:16;0.20;99.90
66088;DHT22;52872;52.994;6.940;2024-01-16T08:21:43;0.20;99.90
66088;DHT22;52872;52.994;6.940;2024-01-16T08:24:11;0.30;99.90
66088;DHT22;52872;52.994;6.940;2024-01-16T08:26:38;0.30;99.90
66088;DHT22;52872;52.994;6.940;2024-01-16T08:29:05;0.30;99.90
66088;DHT22;52872;52.994;6.940;2024-01-16T08:31:32;0.40;99.90
66088;DHT22;52872;52.994;6.940;2024-01-16T08:33:59;0.40;99.90
66088;DHT22;52872;52.994;6.940;2024-01-16T08:36:27;0.50;99.90
66088;DHT22;52872;52.994;6.940;2024-01-16T08:38:54;0.60;99.90
66088;DHT22;52872;52.994;6.940;2024-01-16T08:41:22;0.60;99.90
66088;DHT22;52872;52.994;6.940;2024-01-16T08:43:49;0.60;99.90
66088;DHT22;52872;52.994;6.940;2024-01-16T08:46:18;0.60;99.90
66088;DHT22;52872;52.994;6.940;2024-01-16T08:48:47;0.60;99.90
66088;DHT22;52872;52.994;6.940;2024-01-16T08:51:14;0.60;99.90
66088;DHT22;52872;52.994;6.940;2024-01-16T08:53:41;0.60;99.90
66088;DHT22;52872;52.994;6.940;2024-01-16T08:56:09;0.70;99.90
66088;DHT22;52872;52.994;6.940;2024-01-16T08:58:36;0.90;99.90
66088;DHT22;52872;52.994;6.940;2024-01-16T09:01:05;0.90;99.90
66088;DHT22;52872;52.994;6.940;2024-01-16T09:03:33;1.40;99.90
66088;DHT22;52872;52.994;6.940;2024-01-16T09:06:01;1.60;99.90
66088;DHT22;52872;52.994;6.940;2024-01-16T09:08:28;1.90;99.90
66088;DHT22;52872;52.994;6.940;2024-01-16T09:10:56;1.70;99.90
66088;DHT22;52872;52.994;6.940;2024-01-16T09:13:23;1.50;99.90
66088;DHT22;52872;52.994;6.940;2024-01-16T09:15:51;1.40;99.90
66088;DHT22;52872;52.994;6.940;2024-01-16T09:18:18;1.10;99.90
66088;DHT22;52872;52.994;6.940;2024-01-16T09:20:45;0.90;99.90
66088;DHT22;52872;52.994;6.940;2024-01-16T09:23:13;0.80;99.90
66088;DHT22;52872;52.994;6.940;2024-01-16T09:25:41;0.70;99.90
66088;DHT22;52872;52.994;6.940;2024-01-16T09:28:10;0.70;99.90
66088;DHT22;52872;52.994;6.940;2024-01-16T09:30:37;0.70;99.90
66088;DHT22;52872;52.994;6.940;2024-01-16T09:33:05;0.80;99.90
66088;DHT22;52872;52.994;6.940;2024-01-16T09:35:34;0.90;99.90
66088;DHT22;52872;52.994;6.940;2024-01-16T09:38:02;1.10;99.90
66088;DHT22;52872;52.994;6.940;2024-01-16T09:40:29;1.10;99.90
66088;DHT22;52872;52.994;6.940;2024-01-16T09:42:56;1.20;99.90
66088;DHT22;52872;52.994;6.940;2024-01-16T09:45:24;1.10;99.90
66088;DHT22;52872;52.994;6.940;2024-01-16T09:47:52;1.10;99.90
66088;DHT22;52872;52.994;6.940;2024-01-16T09:50:20;1.20;99.90
66088;DHT22;52872;52.994;6.940;2024-01-16T09:52:48;1.20;99.90
66088;DHT22;52872;52.994;6.940;2024-01-16T09:55:16;1.20;99.90
66088;DHT22;52872;52.994;6.940;2024-01-16T09:57:45;1.20;99.90
66088;DHT22;52872;52.994;6.940;2024-01-16T10:00:13;1.30;99.90
66088;DHT22;52872;52.994;6.940;2024-01-16T10:02:42;1.30;99.90
66088;DHT22;52872;52.994;6.940;2024-01-16T10:05:12;1.30;99.90
66088;DHT22;52872;52.994;6.940;2024-01-16T10:07:41;1.30;99.90
66088;DHT22;52872;52.994;6.940;2024-01-16T10:10:11;1.30;99.90
66088;DHT22;52872;52.994;6.940;2024-01-16T10:12:39;1.30;99.90
66088;DHT22;52872;52.994;6.940;2024-01-16T10:15:07;1.30;99.90
66088;DHT22;52872;52.994;6.940;2024-01-16T10:17:38;1.30;99.90
66088;DHT22;52872;52.994;6.940;2024-01-16T10:20:07;1.30;99.90
66088;DHT22;52872;52.994;6.940;2024-01-16T10:22:35;1.40;99.90
66088;DHT22;52872;52.994;6.940;2024-01-16T10:25:11;1.40;99.90
66088;DHT22;52872;52.994;6.940;2024-01-16T10:27:40;1.40;99.90
66088;DHT22;52872;52.994;6.940;2024-01-16T10:30:07;1.40;99.90
66088;DHT22;52872;52.994;6.940;2024-01-16T10:32:36;1.40;99.90
66088;DHT22;52872;52.994;6.940;2024-01-16T10:35:08;1.50;99.90
66088;DHT22;52872;52.994;6.940;2024-01-16T10:37:56;1.50;99.90
66088;DHT22;52872;52.994;6.940;2024-01-16T10:40:24;1.50;99.90
66088;DHT22;52872;52.994;6.940;2024-01-16T10:42:59;1.60;99.90
66088;DHT22;52872;52.994;6.940;2024-01-16T10:45:27;1.70;99.90
66088;DHT22;52872;52.994;6.940;2024-01-16T10:48:07;1.60;99.90
66088;DHT22;52872;52.994;6.940;2024-01-16T10:50:37;1.60;99.90
66088;DHT22;52872;52.994;6.940;2024-01-16T10:53:07;1.60;99.90
66088;DHT22;52872;52.994;6.940;2024-01-16T10:55:51;1.60;99.90
66088;DHT22;52872;52.994;6.940;2024-01-16T10:58:23;1.70;99.90
66088;DHT22;52872;52.994;6.940;2024-01-16T11:00:52;1.70;99.90
66088;DHT22;52872;52.994;6.940;2024-01-16T11:05:58;1.80;99.90
66088;DHT22;52872;52.994;6.940;2024-01-16T11:08:27;1.80;99.90
66088;DHT22;52872;52.994;6.940;2024-01-16T11:10:59;1.90;99.90
66088;DHT22;52872;52.994;6.940;2024-01-16T11:13:28;1.80;99.90
66088;DHT22;52872;52.994;6.940;2024-01-16T11:15:56;1.80;99.90
66088;DHT22;52872;52.994;6.940;2024-01-16T11:18:25;1.80;99.90
66088;DHT22;52872;52.994;6.940;2024-01-16T11:20:55;1.90;99.90
66088;DHT22;52872;52.994;6.940;2024-01-16T11:23:30;1.90;99.90
66088;DHT22;52872;52.994;6.940;2024-01-16T11:25:57;1.90;99.90
66088;DHT22;52872;52.994;6.940;2024-01-16T11:28:28;1.80;99.90
66088;DHT22;52872;52.994;6.940;2024-01-16T11:30:58;1.80;99.90
66088;DHT22;52872;52.994;6.940;2024-01-16T11:36:47;2.10;99.90
66088;DHT22;52872;52.994;6.940;2024-01-16T11:39:20;2.30;99.90
66088;DHT22;52872;52.994;6.940;2024-01-16T11:41:55;2.10;99.90
66088;DHT22;52872;52.994;6.940;2024-01-16T11:44:42;1.90;99.90
66088;DHT22;52872;52.994;6.940;2024-01-16T11:49:50;1.70;99.90
66088;DHT22;52872;52.994;6.940;2024-01-16T11:52:43;1.70;99.90
66088;DHT22;52872;52.994;6.940;2024-01-16T11:55:30;1.70;99.90
66088;DHT22;52872;52.994;6.940;2024-01-16T11:58:35;1.80;99.90
66088;DHT22;52872;52.994;6.940;2024-01-16T12:01:10;1.70;99.90
66088;DHT22;52872;52.994;6.940;2024-01-16T12:03:38;1.60;99.90
66088;DHT22;52872;52.994;6.940;2024-01-16T12:06:06;1.60;99.90
66088;DHT22;52872;52.994;6.940;2024-01-16T12:08:36;1.60;99.90
66088;DHT22;52872;52.994;6.940;2024-01-16T12:11:07;1.60;99.90
66088;DHT22;52872;52.994;6.940;2024-01-16T12:13:34;1.60;99.90
66088;DHT22;52872;52.994;6.940;2024-01-16T12:16:05;1.60;99.90
66088;DHT22;52872;52.994;6.940;2024-01-16T12:18:32;1.70;99.90
66088;DHT22;52872;52.994;6.940;2024-01-16T12:21:08;1.70;99.90
66088;DHT22;52872;52.994;6.940;2024-01-16T12:23:36;1.80;99.90
66088;DHT22;52872;52.994;6.940;2024-01-16T12:26:06;1.90;99.90
66088;DHT22;52872;52.994;6.940;2024-01-16T12:28:33;1.90;99.90
66088;DHT22;52872;52.994;6.940;2024-01-16T12:31:00;2.00;99.90
66088;DHT22;52872;52.994;6.940;2024-01-16T12:33:29;2.30;99.90
66088;DHT22;52872;52.994;6.940;2024-01-16T12:36:02;2.50;99.90
66088;DHT22;52872;52.994;6.940;2024-01-16T12:38:30;2.80;99.90
66088;DHT22;52872;52.994;6.940;2024-01-16T12:40:58;3.20;99.90
66088;DHT22;52872;52.994;6.940;2024-01-16T12:43:26;3.40;99.90
66088;DHT22;52872;52.994;6.940;2024-01-16T12:45:57;3.60;99.90
66088;DHT22;52872;52.994;6.940;2024-01-16T12:48:27;3.60;99.90
66088;DHT22;52872;52.994;6.940;2024-01-16T12:51:02;3.80;99.90
66088;DHT22;52872;52.994;6.940;2024-01-16T12:53:30;3.80;99.90
66088;DHT22;52872;52.994;6.940;2024-01-16T12:56:03;3.80;99.90
66088;DHT22;52872;52.994;6.940;2024-01-16T12:58:36;3.60;99.90
66088;DHT22;52872;52.994;6.940;2024-01-16T13:01:25;3.70;99.90
66088;DHT22;52872;52.994;6.940;2024-01-16T13:04:03;3.60;99.90
66088;DHT22;52872;52.994;6.940;2024-01-16T13:06:30;3.50;99.90
66088;DHT22;52872;52.994;6.940;2024-01-16T13:09:06;3.60;99.90
66088;DHT22;52872;52.994;6.940;2024-01-16T13:11:51;3.60;99.90
66088;DHT22;52872;52.994;6.940;2024-01-16T13:14:19;3.80;99.90
66088;DHT22;52872;52.994;6.940;2024-01-16T13:16:53;3.50;99.90
66088;DHT22;52872;52.994;6.940;2024-01-16T13:19:24;3.70;99.90
66088;DHT22;52872;52.994;6.940;2024-01-16T13:21:52;3.70;99.90
66088;DHT22;52872;52.994;6.940;2024-01-16T13:24:19;3.40;99.90
66088;DHT22;52872;52.994;6.940;2024-01-16T13:26:50;3.60;99.90
66088;DHT22;52872;52.994;6.940;2024-01-16T13:29:18;3.70;99.90
66088;DHT22;52872;52.994;6.940;2024-01-16T13:31:46;3.70;99.90
66088;DHT22;52872;52.994;6.940;2024-01-16T13:34:13;3.70;99.90
66088;DHT22;52872;52.994;6.940;2024-01-16T13:36:41;3.60;99.90
66088;DHT22;52872;52.994;6.940;2024-01-16T13:39:13;3.60;99.90
66088;DHT22;52872;52.994;6.940;2024-01-16T13:41:43;3.40;99.90
66088;DHT22;52872;52.994;6.940;2024-01-16T13:44:10;3.30;99.90
66088;DHT22;52872;52.994;6.940;2024-01-16T13:46:37;3.00;99.90
66088;DHT22;52872;52.994;6.940;2024-01-16T13:49:08;2.50;99.90
66088;DHT22;52872;52.994;6.940;2024-01-16T13:51:35;2.20;99.90
66088;DHT22;52872;52.994;6.940;2024-01-16T13:54:03;1.80;99.90
66088;DHT22;52872;52.994;6.940;2024-01-16T13:56:31;1.70;99.90
66088;DHT22;52872;52.994;6.940;2024-01-16T13:59:10;1.60;99.90
66088;DHT22;52872;52.994;6.940;2024-01-16T14:01:37;1.50;99.90
66088;DHT22;52872;52.994;6.940;2024-01-16T14:04:05;1.50;99.90
66088;DHT22;52872;52.994;6.940;2024-01-16T14:06:32;1.50;99.90
66088;DHT22;52872;52.994;6.940;2024-01-16T14:09:08;1.60;99.90
66088;DHT22;52872;52.994;6.940;2024-01-16T14:11:38;1.60;99.90
66088;DHT22;52872;52.994;6.940;2024-01-16T14:14:05;1.60;99.90
66088;DHT22;52872;52.994;6.940;2024-01-16T14:16:32;1.60;99.90
66088;DHT22;52872;52.994;6.940;2024-01-16T14:19:07;1.70;99.90
66088;DHT22;52872;52.994;6.940;2024-01-16T14:21:34;1.80;99.90
66088;DHT22;52872;52.994;6.940;2024-01-16T14:24:02;1.80;99.90
66088;DHT22;52872;52.994;6.940;2024-01-16T14:26:29;1.80;99.90
66088;DHT22;52872;52.994;6.940;2024-01-16T14:28:56;1.90;99.90
66088;DHT22;52872;52.994;6.940;2024-01-16T14:31:23;1.90;99.90
66088;DHT22;52872;52.994;6.940;2024-01-16T14:33:51;1.90;99.90
66088;DHT22;52872;52.994;6.940;2024-01-16T14:36:20;1.90;99.90
66088;DHT22;52872;52.994;6.940;2024-01-16T14:38:47;2.10;99.90
66088;DHT22;52872;52.994;6.940;2024-01-16T14:41:15;2.30;99.90
66088;DHT22;52872;52.994;6.940;2024-01-16T14:43:44;2.50;99.90
66088;DHT22;52872;52.994;6.940;2024-01-16T14:46:12;2.30;99.90
66088;DHT22;52872;52.994;6.940;2024-01-16T14:48:45;2.20;99.90
66088;DHT22;52872;52.994;6.940;2024-01-16T14:51:12;2.00;99.90
66088;DHT22;52872;52.994;6.940;2024-01-16T14:53:40;1.80;99.90
66088;DHT22;52872;52.994;6.940;2024-01-16T14:56:08;1.70;99.90
66088;DHT22;52872;52.994;6.940;2024-01-16T14:58:36;1.60;99.90
66088;DHT22;52872;52.994;6.940;2024-01-16T15:01:03;1.50;99.90
66088;DHT22;52872;52.994;6.940;2024-01-16T15:03:31;1.50;99.90
66088;DHT22;52872;52.994;6.940;2024-01-16T15:05:59;1.50;99.90
66088;DHT22;52872;52.994;6.940;2024-01-16T15:08:26;1.50;99.90
66088;DHT22;52872;52.994;6.940;2024-01-16T15:10:55;1.50;99.90
66088;DHT22;52872;52.994;6.940;2024-01-16T15:13:22;1.50;99.90
66088;DHT22;52872;52.994;6.940;2024-01-16T15:15:50;1.60;99.90
66088;DHT22;52872;52.994;6.940;2024-01-16T15:18:18;1.50;99.90
66088;DHT22;52872;52.994;6.940;2024-01-16T15:20:45;1.60;99.90
66088;DHT22;52872;52.994;6.940;2024-01-16T15:23:13;1.50;99.90
66088;DHT22;52872;52.994;6.940;2024-01-16T15:25:40;1.50;99.90
66088;DHT22;52872;52.994;6.940;2024-01-16T15:28:08;1.50;99.90
66088;DHT22;52872;52.994;6.940;2024-01-16T15:30:35;1.50;99.90
66088;DHT22;52872;52.994;6.940;2024-01-16T15:33:03;1.40;99.90
66088;DHT22;52872;52.994;6.940;2024-01-16T15:35:34;1.40;99.90
66088;DHT22;52872;52.994;6.940;2024-01-16T15:38:01;1.40;99.90
66088;DHT22;52872;52.994;6.940;2024-01-16T15:40:30;1.40;99.90
66088;DHT22;52872;52.994;6.940;2024-01-16T15:42:57;1.30;99.90
66088;DHT22;52872;52.994;6.940;2024-01-16T15:45:27;1.20;99.90
66088;DHT22;52872;52.994;6.940;2024-01-16T15:47:54;1.10;99.90
66088;DHT22;52872;52.994;6.940;2024-01-16T15:50:21;1.00;99.90
66088;DHT22;52872;52.994;6.940;2024-01-16T15:52:49;0.90;99.90
66088;DHT22;52872;52.994;6.940;2024-01-16T15:55:18;0.80;99.90
66088;DHT22;52872;52.994;6.940;2024-01-16T15:57:45;0.70;99.90